E. Research

page: 2
10
<< 1    3  4  5 >>

log in

join

posted on Apr, 21 2010 @ 04:05 PM
link   
Earthquake cell to the SE released during the night. Two small earthquakes struck 15 and 17 miles to the east of Oklahoma City, Oklahoma.

MAG, UTC DATE-TIME (y/m/d h:m:s), LAT deg, LON deg, DEPTH km (miles), LOCATION

MAP 2.6 2010/04/21 01:11:12 35.501 -97.237 10.9 3 km ( 2 mi) NE of Choctaw, OK
Tuesday, April 20, 2010 at 08:11:12 PM at epicenter

MAP 2.5 2010/04/21 16:47:51 35.523 -97.276 5.0 5 km ( 3 mi) N of Choctaw, OK
Wednesday, April 21, 2010 at 11:47:51 AM at epicenter

The earthquake cell to the SE was related to the region E of Oklahoma, City, Oklahoma that just had the earthquakes. It shows that linked areas can be much closer that hundreds to thousands of miles away; they can in fact be within 100 miles as has been shown several times in the past. These quakes are man made quakes and they differ from natural earthquakes in the fact that they don't have the natural earthquake cycle at the nearby associated earthquake cells that surround the earthquake cell that will quake. The surrounding earthquake cells can and do have less pressure than the earthquake cell that quakes. The surrounding earthquake cells are unstable and not cyclic in nature as natural earthquake cells are.




posted on Apr, 21 2010 @ 04:10 PM
link   
Oklahoma earthquakes 89 to 4/12/10; notice increase starting in 2009 in number of earthquakes because of man-made earthquakes.

FILE CREATED: Wed Apr 21 22:14:31 2010
Geographic Grid Search Earthquakes= 85
Latitude: 37.000N - 33.500N
Longitude: 94.250W - 100.000W
Catalog Used: PDE
Date Range: 1989/01/01 to 2010/04/21
Magnitude Range: 1.0 - 9.0
Depth Range: 1 - 20
Intensity Range: 1 - 9
Data Selection: Historical & Preliminary Data


CAT YEAR MO DA ORIG TIME LAT LONG DEP MAGNITUDE IEM DTSVNWG DIST
NFO km
TF

PDE 1989 07 20 060750.42 36.43 -98.88 5 3.1 LgGS 3F. .......
PDE 1990 09 16 211332.40 34.80 -95.53 5 2.5 LgTUL 4F. .......
PDE 1990 11 15 114441.40 34.76 -97.59 5 3.9 LgTUL 5F. .......
PDE 1991 01 24 050026.90 36.38 -97.30 5 3.0 LgGS 5F. .......
PDE 1992 06 30 012549.30 35.26 -96.42 5 2.7 MDTUL 2F. .......
PDE 1992 08 09 210552.10 34.77 -96.49 5 2.2 MDTUL 1F. .......
PDE 1992 08 10 200304.20 34.98 -97.45 5 2.9 MDTUL 4F. .......
PDE 1992 10 05 044408.60 36.40 -97.50 5 2.8 MDTUL 5F. .......
PDE 1992 12 17 071804.27 34.74 -97.58 5 3.6 LgGS 4F. .......
PDE 1993 01 14 170610.45 36.60 -98.28 5 3.1 LgGS 4F. .......
PDE 1993 03 11 011501.50 35.21 -95.93 5 2.7 LgTUL 3F. .......
PDE 1994 04 29 032858.68 36.25 -98.09 5 3.0 LgGS 4F. .......
PDE 1995 01 18 155139.42 34.77 -97.60 5 4.2 LgTUL 5F. .......
PDE 1995 03 23 111012.31 36.90 -99.60 5 2.8 LgGS 2F. .......
PDE 1995 06 01 044929.32 34.29 -96.73 5 3.0 LgGS 5F. .......
PDE 1995 09 15 003133.26 36.87 -98.69 5 4.1 LgGS 5F. .......
PDE 1996 12 19 162957.72 35.08 -97.65 5 2.5 LgGS 4F. .......
PDE 1997 09 06 233800.91 34.66 -96.43 5 4.5 LgTUL 5F. .......
PDE 1998 04 28 141301.68 34.78 -98.42 5 4.2 LgGS 6D. .......
PDE 2002 02 08 160713.60 34.73 -98.36 5 3.8 LgTUL 5F. .......
PDE 2002 05 31 095710.02 34.03 -97.62 5 3.3 LgGS 3F. .......
PDE 2002 10 20 021813 34.27 -96.08 5 3.4 LgTUL 5F. .......
PDE 2003 12 08 185069.03 35.12 -97.53 5 2.4 MDTUL 5F. .......
PDE 2003 12 11 163509 35.12 -97.53 5 2.4 MDTUL 5F. .......
PDE 2004 06 08 001509.99 34.23 -97.25 5 3.5 LgGS 4F. .......
PDE 2005 04 22 051704.09 34.18 -95.19 5 3.0 LgTUL 5F. .......
PDE 2005 05 16 222946.84 35.25 -97.61 5 2.8 LgTUL 3F. .......
PDE 2006 10 06 221316.78 34.12 -97.62 5 3.5 LgGS 4F. .......
PDE 2006 12 21 024114.65 35.46 -97.41 5 2.6 MDTUL 4F. .......
PDE 2006 12 21 061406.71 35.46 -97.41 5 2.7 MDTUL 4F. .......
PDE 2007 01 08 214602.91 34.54 -96.43 5 2.5 LgTUL 3F. .......
PDE 2007 02 12 183233.66 35.44 -97.46 5 2.8 LgGS 3F. .......
PDE 2007 05 27 210322.11 35.15 -95.98 5 3.2 MDTUL 4F. .......
PDE 2008 01 26 045306.76 34.21 -96.26 5 2.3 MDTUL 4F. .......
PDE 2008 02 15 154105.68 34.17 -96.29 5 2.4 MDTUL 4F. .......
PDE 2008 06 09 225947.12 35.35 -96.77 5 3.1 MDTUL 4F. .......
PDE 2008 12 02 024937.82 35.57 -97.57 5 2.7 LgGS 3F. .......
PDE 2009 01 28 111909.47 35.16 -97.87 5 3.4 LgGS 3F. .......
PDE 2009 01 30 005752.38 35.72 -96.92 5 2.4 LgGS 2F. .......
PDE 2009 02 25 041415.33 34.74 -96.04 5 3.3 LgGS 3F. .......
PDE 2009 03 08 130639.94 35.45 -97.46 5 3.4 LgGS 4F. .......
PDE 2009 03 17 172452 35.45 -97.46 5 2.7 LgGS 3F. .......
PDE 2009 03 17 174137 35.45 -97.46 5 2.5 LgGS 3F. .......
PDE 2009 03 17 195716.48 35.45 -97.46 5 2.4 LgGS 3F. .......
PDE 2009 05 24 052035 35.71 -96.88 5 2.0 LgGS 2F. .......
PDE 2009 05 29 012630 35.71 -96.88 5 2.2 LgGS 2F. .......
PDE-W 2009 06 14 213109.02 35.66 -96.85 5 3.4 LgGS 3F. .......
PDE-W 2009 06 26 212313.75 36.36 -97.47 5 3.7 LgGS 2F. .......
PDE-W 2009 07 01 171448.24 35.55 -97.17 5 3.4 LgTUL 3F. .......
PDE-W 2009 07 22 022559.80 35.74 -96.94 5 3.3 LgGS 5F. .......
PDE-W 2009 08 14 200858.49 35.47 -97.41 5 2.3 LgGS 2F. .......
PDE-W 2009 08 27 082214.53 34.94 -96.62 5 3.4 LgTUL 3F. .......
PDE-W 2009 08 27 125825 35.57 -97.29 5 2.5 LgGS 2F. .......
PDE-W 2009 08 28 033055 35.57 -97.29 5 2.4 LgGS 3F. .......
PDE-W 2009 10 23 035629.73 35.80 -97.03 5 3.0 LgGS 4F. .......
PDE-W 2009 11 02 182705.86 35.43 -96.55 5 2.7 LgGS 3F. .......
PDE-W 2009 11 14 111301.34 35.49 -97.20 5 3.1 LgGS 3F. .......
PDE-W 2009 11 16 111237.14 35.48 -97.23 5 3.0 LgGS 2F. .......
PDE-W 2009 11 23 054712.87 35.49 -97.25 5 2.6 LgGS 3F. .......
PDE-W 2009 11 29 013658.63 35.56 -97.28 5 3.0 LgGS 3F. .......
PDE-W 2009 12 07 174425.18 35.56 -97.25 5 3.5 LgGS 3F. .......
PDE-W 2009 12 11 140017.83 35.59 -97.33 5 2.8 LgGS 3F. .......
PDE-W 2009 12 12 113405.45 35.56 -97.32 5 3.1 LgGS 3F. .......
PDE-W 2009 12 13 083825.88 35.59 -97.29 5 3.6 LgGS 3F. .......
PDE-W 2009 12 20 050521.34 35.55 -97.27 5 3.1 LgGS 4F. .......
PDE-W 2009 12 30 085336.43 35.51 -97.28 5 2.4 LgGS 3F. .......
PDE-W 2010 01 01 184551.60 35.63 -97.18 5 2.8 LgGS 3F. .......
PDE-W 2010 01 11 051600.07 35.54 -97.26 5 2.8 LgGS 3F. .......
PDE-W 2010 01 14 100534.15 35.54 -97.24 5 3.3 LgGS 3F. .......
PDE-W 2010 01 15 151826.35 35.58 -97.25 8 3.8 MwRMT 5FM .......
PDE-W 2010 01 18 114438.86 35.50 -97.25 5 2.5 LgGS 2F. .......
PDE-W 2010 01 24 071452.23 35.50 -97.25 6 3.6 MwRMT 4FM .......
PDE-Q 2010 02 01 234304.70 35.55 -97.24 5 2.5 LgGS 2F. .......
PDE-Q 2010 02 13 053055.78 35.53 -97.27 8 3.2 MwRMT 3FM .......
PDE-Q 2010 02 15 033225.60 35.57 -97.28 5 2.9 LgGS 3F. .......
PDE-Q 2010 02 19 161248.81 35.67 -97.05 5 2.9 LgGS 3F. .......
PDE-Q 2010 02 21 050741.96 35.61 -97.04 5 2.5 LgGS 3F. .......
PDE-Q 2010 02 26 090207.62 35.57 -97.09 5 3.1 LgGS 3F. .......
PDE-Q 2010 02 27 222227.30 35.55 -96.75 4 4.1 MwRMT 4FM .......
PDE-Q 2010 03 03 043517.86 35.55 -97.28 5 2.5 LgGS 2F. .......
PDE-Q 2010 03 05 203513.97 35.61 -96.78 5 3.1 LgGS 4F. .......
PDE-Q 2010 03 10 060435.61 35.60 -96.77 5 3.1 LgGS 4F. .......
PDE-Q 2010 03 13 090244.36 35.40 -98.07 5 3.1 LgGS 2F. .......
PDE-Q 2010 03 22 023718.28 35.56 -96.75 8 3.7 MwRMT 4FM .......
PDE-Q 2010 04 12 040448.48 35.60 -97.11 5 3.0 LgGS 4F. .......


[edit on 21-4-2010 by RussianScientists]



posted on May, 3 2010 @ 08:42 PM
link   
A signal is detected almost straight south of this location, but about 2-3 degrees to the east of true south. Haven't checked for location or distance; I have other things to do; selling some cattle tomorrow morning. An imaginary line would run from here through Oklahoma City, Oklahoma, somewhere along that line is the location of the signal being detected and visually seen in the direction described above. Signal is extremely weak in background radiation range.

Research purposes only.

[edit on 3-5-2010 by RussianScientists]



posted on May, 5 2010 @ 09:22 PM
link   
The signal has shifted and is now directly to the south of this location, but 2-3 degrees to the west of an imaginary line running straight south, heading towards Oklahoma City, Oklahoma. Signal is extremely weak background radiation.

Research only.



posted on May, 7 2010 @ 04:18 PM
link   
Just checked USGS site and found:

Earthquake Details
Magnitude 3.1
Date-Time Friday, May 07, 2010 at 12:44:56 UTC
Friday, May 07, 2010 at 07:44:56 AM at epicenter
Time of Earthquake in other Time Zones

Location 35.531°N, 97.234°W
Depth 5 km (3.1 miles) set by location program
Region OKLAHOMA
Distances 6 km (4 miles) NNE (29°) from Choctaw, OK
6 km (4 miles) SE (126°) from Jones, OK
8 km (5 miles) NW (323°) from Harrah, OK
28 km (17 miles) E (79°) from Oklahoma City, OK
306 km (190 miles) N (352°) from Dallas, TX

Location Uncertainty horizontal +/- 6.6 km (4.1 miles); depth fixed by location program
Parameters NST= 15, Nph= 15, Dmin=42.4 km, Rmss=0.85 sec, Gp=108°,
M-type="Nuttli" surface wave magnitude (mbLg), Version=6
Source USGS NEIC (WDCS-D)


Event ID us2010vzbb

I just checked the piezo-seismic system at the Burrton location and its registering a signal about 10 degrees east of true south right now; proving that earthquakes are still detectable hours after they strike. This one is still detectable as of right now approximately 8.5 hours after it struck. The longest has still been 1.5 days before it finally settled back into place. This proves that a person using a mobile piezo-seismic system could still go and pinpoint the epicenter and hypocenter and make gps readings at distant points from the earthquake in order to map it's magnitude. This is not the case for all earthquakes though.

Future reference only.



posted on May, 8 2010 @ 12:12 AM
link   
Same direction at 12 AM in the morning. Background radiation extremely weak still. Expecting signal to end by 7:44PM this evening as the subsurface returns to normal, and/or it will shift to a different directional position.

Reference only.



posted on May, 8 2010 @ 06:46 AM
link   
Checked direction, no change yet.



posted on May, 8 2010 @ 07:34 AM
link   
so basicly the target is the west coast, and since baja didnt set it off they are going from a different direction, and we can monitor this by watching the pressure over near oklahoma?

pressure + no quakes in Oklahoma = get the hell out of cali?



posted on May, 8 2010 @ 05:41 PM
link   
reply to post by LurkerMan
 


I'm only studying earthquakes in Oklahoma, I really don't care about earthquakes out in California right now.

There will be "NO" large earthquake in California for the next 3-4 days though, if that is what you need to hear; simply because this earthquake actually "struck" in Oklahoma instead of releasing like the one before it did.

The one before it released without quaking, and if we look at a map about 4 days later off the coast of Oregon was this baby.

Earthquake Details
Magnitude 5.1
Date-Time Friday, May 07, 2010 at 17:46:14 UTC
Friday, May 07, 2010 at 08:46:14 AM at epicenter
Time of Earthquake in other Time Zones

Location 44.369°N, 129.441°W
Depth 10 km (6.2 miles) set by location program
Region OFF THE COAST OF OREGON
Distances 424 km (264 miles) W (273°) from Yachats, OR
427 km (265 miles) WNW (287°) from Barview, OR
427 km (265 miles) WNW (291°) from Bandon, OR
506 km (314 miles) W (276°) from Eugene, OR
550 km (342 miles) W (259°) from Portland, OR

Location Uncertainty horizontal +/- 5.3 km (3.3 miles); depth fixed by location program
Parameters NST=222, Nph=222, Dmin=445.1 km, Rmss=1.22 sec, Gp=108°,
M-type=body wave magnitude (Mb), Version=8
Source USGS NEIC (WDCS-D)


Event ID us2010vzbx



This particular earthquake that I'm studying in Oklahoma has already quaked in Oklahoma. I'm only watching this one right now to see how long it takes for the ground to settle back into place; or how long its detectable after it quaked. In this particular case the ground finally settled back into place sometime between 4:44 PM and 5 PM today. Which means it was detectable and/or mappable for 1.5 days, minus about 2 hours; or about 33.5-34 hours after the earthquake to place. Signal is gone.

People are safe in California for the next three days.

It will be interesting to see if the next earthquake cell that releases without quaking that is detected from SSE or about 10-15 degrees east of straight south will end up with another large earthquake striking 3-4 days later in the California/Oregon region. Or, one day after the release down near Mexico City, or a Central American country. Or, if no larger earthquake will strike in any of those regions. We shall wait and for such an earthquake cell to be detected in the SSE direction or 10-15 degrees east of straight south from here, and see what happens within the next 4 days after it releases without quaking.

For now, people are safe in Cali; as you call it.



posted on May, 9 2010 @ 12:25 AM
link   
New earthquake struck in same area, but magnitude of new earthquake is M2.5 at 173 miles distance. Overlapped by the last earthquake which was an M3.1 in the same area. New earthquake is actually detectable from Burrton still at this time, but unlike the other larger earthquakes from that region, the refraction radiation that can be seen from here is fading in and out and it is extremely faint; it,s also only about 10 inches across, whereas the others are usually 4-6 feet across. In other words the width of the radiation and distance can also be used in some cases to determine magnitude also. Interesting.... maximum distance was supposed to be 10 times magnitude minus 100, or in this case; M2.5 times 100 minus 100 equals a maximum distance of 150 miles. This detection was 23 miles beyond that, but extremely faint, fading in and out, about 10 inches wide at top of east half door (centered in the east half door at the top, for future direction reference).


From USGS site:

Magnitude 2.5
Date-Time Sunday, May 09, 2010 at 01:11:26 UTC
Saturday, May 08, 2010 at 08:11:26 PM at epicenter
Time of Earthquake in other Time Zones

Location 35.525°N, 97.294°W
Depth 4.9 km (3.0 miles)
Region OKLAHOMA
Distances 4 km (3 miles) S (184°) from Jones, OK
5 km (3 miles) NE (40°) from Nicoma Park, OK
5 km (3 miles) NNW (333°) from Choctaw, OK
22 km (14 miles) ENE (78°) from Oklahoma City, OK
307 km (190 miles) N (351°) from Dallas, TX

Location Uncertainty horizontal +/- 7.1 km (4.4 miles); depth +/- 4.8 km (3.0 miles)
Parameters NST= 9, Nph= 16, Dmin=40.1 km, Rmss=1.14 sec, Gp= 83°,
M-type="Nuttli" surface wave magnitude (mbLg), Version=6
Source USGS NEIC (WDCS-D)


Event ID us2010wbae

Future reference only.



posted on May, 9 2010 @ 02:14 PM
link   
Distance to doorway from optics is 15' 3''.

Viewable area across of the radiation penetrating through steel and wooden walls is 10''.

The centerline of the radiation penetrating through steel and wooden walls is 21" to the East from being exactly straight South from the optics being located 15' 3'' to the North.

This weak radiation from the M2.5 earthquake is still viewable at 2:12 PM today, after it struck at 8:11 PM last night. Expecting it to disappear before 36 hours passes.



posted on May, 11 2010 @ 03:07 PM
link   
Today I watched twice as a giant wave of radiation passed by this location today from the south. I must be on the very edge of its existance because the wave actually stops right on the north side of the piezo-seismic system and then recedes back to the south from where it came from. The wave is barely detectable in the back ground radiation zone of detection, but gets into the 1st range at its peak pressure. What is so strange about this wave is that it comes in as a solid wave and lasts for about 12 minutes.

Today I have the piezo-seismic set up in the second position which means that the last earthquake had the following data from the second piezo-seismic system location.

M2.5 hit approximately 173 miles away earthquake radiation data is/was:
radiation detectable 13 feet directly to the south, then over
21 inches to the east was the center of the radiation
10 inches wide was the radiation, or 5" on both sides of the center


todays measurements of new radiation passing through steel and wooden walls are:

radiation detectable 13 feet directly to the south, then over
51 inches to the east is the center of the radiation
28 inches wide is the radiation, or 14" on both sides of the center

While watching this radiation penetrating the south walls today the waves struck and everything to the south of the piezoseimic system was engulfed in the waves, but just to the north about 10 feet - the wave ended, before retreating. Interesting, I've never seen this occur before.

For research reference only.



posted on May, 13 2010 @ 11:58 AM
link   
In Fort Worth, Texas today.

Visual radiation detection direction of an earthquake cell epicenter is to the SW of 5033 Keating, Fort Worth, Texas and is in the direction of Lake Fort Worth. The radiation penetrates the SW wall of the second story of this home. The background radiation is very weak, distance unknown.



posted on May, 19 2010 @ 06:38 PM
link   
Reference Purposes Only: Here is an earthquake that struck in Oklahoma while I was visiting my brothers in Dallas, Texas.

Magnitude 2.0
Date-Time Thursday, May 13, 2010 at 17:27:39 UTC
Thursday, May 13, 2010 at 12:27:39 PM at epicenter
Time of Earthquake in other Time Zones

Location 35.491°N, 97.223°W
Depth 5 km (3.1 miles) set by location program
Region OKLAHOMA
Distances 4 km (2 miles) WNW (295°) from Harrah, OK
4 km (3 miles) ENE (77°) from Choctaw, OK
10 km (6 miles) E (90°) from Nicoma Park, OK
28 km (18 miles) E (88°) from Oklahoma City, OK
302 km (188 miles) N (352°) from Dallas, TX

Location Uncertainty horizontal +/- 16.2 km (10.1 miles); depth fixed by location program
Parameters NST= 6, Nph= 6, Dmin=47.1 km, Rmss=1.42 sec, Gp=169°,
M-type="Nuttli" surface wave magnitude (mbLg), Version=6
Source USGS NEIC (WDCS-D)


Event ID us2010wfbr


Today I'm back at Burrton, Kansas. Today there is a signal coming from a completely different direction. There was no signals detectable in this area when I arrived home yesterday evening when I looked at the piezoseismic chart.

Today there is a signal coming from the NNE. The signal is in the very low background radiation area of detection; meaning the signal is not from a nearby source. I looked at a map and the signal runs along an imaginary line from the Burrton, Kansas location towards Des Moines, Iowa and maybe beyond. I haven't gone to check the distance/location/depth or the magnitude of this signal. Just watching it from here, Burrton. One must wait for the 24 hour period to go by, before one gets interested in this earthquake cell, because the signal could be gone at 24 hours.

Its cold and wet outside right now. In most of northern Kansas it's raining or misting and in the upper 50s for temperature.

Future reference only.



posted on May, 20 2010 @ 05:39 PM
link   
Radiation still coming from the same direction NNE as stated before. Pulses are 7 minutes long and there are 30 minutes between pulses.

For future reference only.



posted on May, 22 2010 @ 12:18 PM
link   
The earthquake cell to the NNE collapsed or released sometime between 1 PM May 21, and 12 PM May 22. No further radiation to be seen.

Future reference only.



posted on May, 24 2010 @ 11:08 AM
link   
Checking on timing, to see if there are any correlations between earthquake cell releases in the Kansas USA region and the striking of large earthquakes in the distant regions of Central and South America (not expecting there to be any correlation, but just checking to make sure I'm not overlooking anything):

Release took place between 1PM May 21 and Noon May 22.
M5.9 struck Sunday, May 23, 2010 at 05:46:53 PM at Peru, South America epicenter (3,900 miles).
M6.5 struck Monday, May 24, 2010 at 11:18:29 AM at Brazil, South America epicenter (3,525 miles).

The M5.9 earthquake struck in PERU soon after the release in Kansas, exact timing differential unknown. Timing differential is somewhere between:
28 hours and 46 minutes; and
51 hours 46 minutes.
(Figures reduced by 1 hour due to difference of 1 hour in time zones between Kansas and Peru).

The M6.5 earthquake struck in BRAZIL soon after the release in Kansas, exact timing differential unknown. Timing differential is somewhere between:
46 hours and 42 minutes; and
70 hours and 42 minutes.
(Figures reduced by 1 hour due to difference of 1 hour in time zones between Kansas and Brazil).

The regions of Mexico City, Mexico and the State of Colima Mexico are known for large earthquake strikes approximately 24 hours after releases in the region of Hays and Russell, Kansas.

The following are USGS details of the PERU earthquake.

Magnitude 5.9
Date-Time Sunday, May 23, 2010 at 22:46:53 UTC
Sunday, May 23, 2010 at 05:46:53 PM at epicenter
Time of Earthquake in other Time Zones

Location 13.899°S, 74.332°W
Depth 109.6 km (68.1 miles)
Region CENTRAL PERU
Distances 85 km (50 miles) S of Ayacucho, Peru
90 km (55 miles) NNW of Puquio, Peru
150 km (95 miles) E of Ica, Peru
Location Uncertainty horizontal +/- 9.6 km (6.0 miles); depth +/- 5.1 km (3.2 miles)
Source USGS NEIC (WDCS-D)
Event ID us2010wqb3

The following are USGS details of the BRAZIL earthquake.
Earthquake Details by USGS
Magnitude 6.5
Date-Time Monday, May 24, 2010 at 16:18:29 UTC
Monday, May 24, 2010 at 11:18:29 AM at epicenter
Time of Earthquake in other Time Zones

Location 8.072°S, 71.569°W
Depth 580.5 km (360.7 miles)
Region ACRE, BRAZIL
Distances 125 km (75 miles) ESE of Cruzeiro do Sul, Acre, Brazil
330 km (205 miles) E of Pucallpa, Peru
Location Uncertainty horizontal +/- 5.4 km (3.4 miles); depth +/- 6.7 km (4.2 miles)
Source USGS NEIC (WDCS-D)
Event ID us2010wrbc

Future reference only.

[edit on 24-5-2010 by RussianScientists]



posted on May, 28 2010 @ 12:44 AM
link   
An M2.4 earthquake struck to the south in Oklahoma. The magnitude was too small for that distance, absolutely no detection of it from this distance, background radiation was extremely low during this period of time at Burrton piezoseismic station.

Distance from Burrton seismic station to epicenter was 173 miles for the M2.4 earthquake.

Earthquake Details per USGS

Magnitude 2.4
Date-Time Thursday, May 27, 2010 at 07:23:18 UTC
Thursday, May 27, 2010 at 02:23:18 AM at epicenter
Time of Earthquake in other Time Zones

Location 35.528°N, 97.295°W
Depth 6 km (3.7 miles) set by location program
Region OKLAHOMA
Distances 4 km (2 miles) S (185°) from Jones, OK
5 km (3 miles) NE (37°) from Nicoma Park, OK
6 km (4 miles) NNW (334°) from Choctaw, OK
22 km (14 miles) ENE (77°) from Oklahoma City, OK
307 km (191 miles) N (351°) from Dallas, TX

Location Uncertainty Error estimate not available
Parameters NST= 6, Nph= 6, Dmin=39.6 km, Rmss=0 sec, Gp=126°,
M-type=duration magnitude (Md), Version=7
Source Oklahoma Geological Survey, Leonard, USA


Event ID us2010wuav



posted on May, 28 2010 @ 12:58 AM
link   
Two earthquakes (M7.2, M6.4) struck May 27th off the coast of Australia along the Ring of Fire on May 27.

I'll be comparing the timing of when these earthquakes struck compared to releases that were dected beforehand.

Earthquake Details per USGS
Magnitude 7.2
Date-Time Thursday, May 27, 2010 at 17:14:48 UTC
Friday, May 28, 2010 at 04:14:48 AM at epicenter
Time of Earthquake in other Time Zones

Location 13.710°S, 166.507°E
Depth 36.1 km (22.4 miles)
Region VANUATU
Distances 215 km (135 miles) NNW of Luganville, Espiritu Santo, Vanuatu
340 km (210 miles) SSE of Lata, Santa Cruz Islands, Solomon Isl.
485 km (300 miles) NNW of PORT-VILA, Efate, Vanuatu
2070 km (1290 miles) NE of BRISBANE, Queensland, Australia

Location Uncertainty horizontal +/- 8.6 km (5.3 miles); depth +/- 21.2 km (13.2 miles)
Parameters NST= 69, Nph= 69, Dmin=857.7 km, Rmss=1.26 sec, Gp= 29°,
M-type=teleseismic moment magnitude (Mw), Version=8
Source USGS NEIC (WDCS-D)
Event ID us2010wubj



Earthquake Details per USGS
Magnitude 6.4
Date-Time Thursday, May 27, 2010 at 20:48:00 UTC
Friday, May 28, 2010 at 07:48:00 AM at epicenter
Time of Earthquake in other Time Zones

Location 13.641°S, 166.713°E
Depth 32.2 km (20.0 miles)
Region VANUATU
Distances 215 km (135 miles) NNW of Luganville, Espiritu Santo, Vanuatu
335 km (210 miles) SSE of Lata, Santa Cruz Islands, Solomon Isl.
485 km (300 miles) NNW of PORT-VILA, Efate, Vanuatu
2085 km (1300 miles) NE of BRISBANE, Queensland, Australia

Location Uncertainty horizontal +/- 9.3 km (5.8 miles); depth +/- 5.6 km (3.5 miles)
Parameters NST=109, Nph=125, Dmin=>999 km, Rmss=1.14 sec, Gp= 43°,
M-type=teleseismic moment magnitude (Mw), Version=6
Source USGS NEIC (WDCS-D)
Event ID us2010wucd

Future reference only.



posted on Jun, 14 2010 @ 09:40 PM
link   
These two earthquakes were not detectable from Burrton, Ks.


MAG UTC DATE-TIME y/m/d h:m:s LATdeg LONdeg DEPTHkm LOCATION

MAP 2.6 2010/06/12 04:29:52 35.594 -97.207 5.0 8 km ( 5 mi) S of Luther, OK. Distance from Burrton for M2.6 equals 169 miles.

MAP 3.1 2010/06/14 21:33:56 34.865 -97.676 5.0 3 km ( 2 mi) ESE of Bradley, OK. Distance from Burrton for M3.1 equals 218 miles.

Watched fast train pass by tonight. Visual detection of the train occurred on the train, but not the top 1/6th of the train.

Future reference only.





new topics

top topics



 
10
<< 1    3  4  5 >>

log in

join